createdAt,value
2023-04-20T00:00:24.006Z,101342.28
2023-04-20T00:02:50.552Z,101335.56
2023-04-20T00:05:17.200Z,101324.38
2023-04-20T00:07:43.613Z,101327.59
2023-04-20T00:10:10.554Z,101326.06
2023-04-20T00:12:37.014Z,101315.03
2023-04-20T00:15:03.684Z,101305.75
2023-04-20T00:17:30.122Z,101306.97
2023-04-20T00:19:56.581Z,101300.03
2023-04-20T00:22:23.007Z,101304.81
2023-04-20T00:24:49.375Z,101298.69
2023-04-20T00:27:15.751Z,101288.94
2023-04-20T00:29:42.114Z,101288.44
2023-04-20T00:32:08.473Z,101275.16
2023-04-20T00:34:34.922Z,101284.59
2023-04-20T00:37:01.589Z,101268.31
2023-04-20T00:39:28.007Z,101266.81
2023-04-20T00:41:54.494Z,101263.84
2023-04-20T00:44:20.950Z,101272.19
2023-04-20T00:46:47.384Z,101261.44
2023-04-20T00:49:13.762Z,101252.28
2023-04-20T00:51:40.609Z,101249.81
2023-04-20T00:54:07.069Z,101253.66
2023-04-20T00:56:33.504Z,101248.78
2023-04-20T00:58:59.917Z,101244.44
2023-04-20T01:01:26.377Z,101243.97
2023-04-20T01:03:53.645Z,101237.28
2023-04-20T01:06:21.132Z,101229.00
2023-04-20T01:08:51.788Z,101229.47
2023-04-20T01:11:18.429Z,101212.00
2023-04-20T01:13:44.824Z,101217.94
2023-04-20T01:16:11.981Z,101215.44
2023-04-20T01:18:46.457Z,101209.78
2023-04-20T01:21:14.354Z,101198.94
2023-04-20T01:23:40.962Z,101202.91
2023-04-20T01:26:12.758Z,101193.03
2023-04-20T01:28:39.157Z,101175.75
2023-04-20T01:31:06.923Z,101175.47
2023-04-20T01:33:33.705Z,101178.50
2023-04-20T01:36:00.178Z,101183.81
2023-04-20T01:38:26.725Z,101175.06
2023-04-20T01:40:54.374Z,101174.34
2023-04-20T01:43:21.456Z,101169.34
2023-04-20T01:45:47.873Z,101164.88
2023-04-20T01:48:14.274Z,101154.38
2023-04-20T01:50:40.770Z,101154.16
2023-04-20T01:53:07.132Z,101147.88
2023-04-20T01:55:34.039Z,101146.47
2023-04-20T01:58:00.464Z,101140.53
2023-04-20T02:00:26.850Z,101143.22
2023-04-20T02:02:53.468Z,101144.88
2023-04-20T02:05:20.152Z,101146.44
2023-04-20T02:07:46.730Z,101137.78
2023-04-20T02:10:13.118Z,101142.59
2023-04-20T02:12:39.545Z,101127.53
2023-04-20T02:15:07.083Z,101131.25
2023-04-20T02:17:33.875Z,101128.25
2023-04-20T02:20:00.280Z,101142.88
2023-04-20T02:22:26.749Z,101130.25
2023-04-20T02:24:53.168Z,101134.03
2023-04-20T02:27:19.526Z,101129.75
2023-04-20T02:29:46.103Z,101131.84
2023-04-20T02:32:12.482Z,101123.91
2023-04-20T02:34:38.874Z,101122.31
2023-04-20T02:37:05.245Z,101114.78
2023-04-20T02:39:31.693Z,101108.19
2023-04-20T02:41:58.074Z,101110.41
2023-04-20T02:44:24.519Z,101111.03
2023-04-20T02:46:50.967Z,101117.31
2023-04-20T02:49:17.692Z,101111.56
2023-04-20T02:51:44.254Z,101109.41
2023-04-20T02:54:10.777Z,101101.22
2023-04-20T02:56:37.364Z,101103.72
2023-04-20T02:59:04.266Z,101098.56
2023-04-20T03:01:30.713Z,101106.78
2023-04-20T03:03:57.265Z,101099.69
2023-04-20T03:06:23.785Z,101095.38
2023-04-20T03:08:50.150Z,101100.78
2023-04-20T03:11:16.542Z,101100.16
2023-04-20T03:13:42.946Z,101099.41
2023-04-20T03:16:09.405Z,101098.50
2023-04-20T03:18:35.802Z,101102.00
2023-04-20T03:21:02.180Z,101098.63
2023-04-20T03:23:28.548Z,101100.75
2023-04-20T03:25:54.936Z,101094.22
2023-04-20T03:28:21.315Z,101089.47
2023-04-20T03:30:47.808Z,101093.78
2023-04-20T03:33:14.233Z,101090.63
2023-04-20T03:35:40.858Z,101090.19
2023-04-20T03:38:07.334Z,101090.06
2023-04-20T03:40:33.734Z,101082.53
2023-04-20T03:43:00.124Z,101084.78
2023-04-20T03:45:26.622Z,101082.94
2023-04-20T03:47:53.063Z,101081.81
2023-04-20T03:50:19.466Z,101078.47
2023-04-20T03:52:45.954Z,101081.28
2023-04-20T03:55:12.361Z,101080.78
2023-04-20T03:57:38.777Z,101075.75
2023-04-20T04:00:05.708Z,101070.44
2023-04-20T04:02:32.210Z,101069.47
2023-04-20T04:04:58.701Z,101065.09
2023-04-20T04:07:25.322Z,101069.34
2023-04-20T04:09:51.692Z,101067.56
2023-04-20T04:12:18.129Z,101069.84
2023-04-20T04:14:44.513Z,101066.09
2023-04-20T04:17:11.004Z,101063.94
2023-04-20T04:19:37.442Z,101066.97
2023-04-20T04:22:03.820Z,101063.69
2023-04-20T04:24:30.973Z,101072.19
2023-04-20T04:26:58.421Z,101058.25
2023-04-20T04:29:28.135Z,101065.63
2023-04-20T04:31:54.651Z,101067.84
2023-04-20T04:34:21.100Z,101064.13
2023-04-20T04:36:48.005Z,101061.97
2023-04-20T04:39:14.563Z,101065.31
2023-04-20T04:41:41.091Z,101060.38
2023-04-20T04:44:07.448Z,101062.56
2023-04-20T04:46:33.912Z,101055.47
2023-04-20T04:49:04.232Z,101058.91
2023-04-20T04:51:31.614Z,101061.59
2023-04-20T04:53:58.063Z,101065.50
2023-04-20T04:56:24.769Z,101069.50
2023-04-20T04:58:51.143Z,101070.78
2023-04-20T05:01:17.697Z,101069.84
2023-04-20T05:03:44.243Z,101069.84
2023-04-20T05:06:10.748Z,101079.59
2023-04-20T05:08:37.212Z,101076.69
2023-04-20T05:11:03.609Z,101070.09
2023-04-20T05:13:30.006Z,101077.66
2023-04-20T05:15:56.540Z,101079.66
2023-04-20T05:18:23.090Z,101078.66
2023-04-20T05:20:49.762Z,101078.00
2023-04-20T05:23:16.132Z,101079.72
2023-04-20T05:25:43.121Z,101085.28
2023-04-20T05:28:09.555Z,101086.84
2023-04-20T05:30:35.997Z,101093.19
2023-04-20T05:33:02.486Z,101085.41
2023-04-20T05:35:29.311Z,101088.50
2023-04-20T05:37:55.737Z,101100.75
2023-04-20T05:40:22.278Z,101107.72
2023-04-20T05:42:48.847Z,101107.38
2023-04-20T05:45:15.293Z,101105.88
2023-04-20T05:47:41.778Z,101106.50
2023-04-20T05:50:08.936Z,101111.16
2023-04-20T05:52:35.368Z,101110.66
2023-04-20T05:55:01.784Z,101111.03
2023-04-20T05:57:28.172Z,101110.28
2023-04-20T05:59:55.861Z,101108.88
2023-04-20T06:02:22.575Z,101109.91
2023-04-20T06:04:49.363Z,101103.31
2023-04-20T06:07:15.982Z,101102.41
2023-04-20T06:09:42.359Z,101103.97
2023-04-20T06:12:09.737Z,101109.25
2023-04-20T06:14:36.244Z,101110.78
2023-04-20T06:17:02.855Z,101103.31
2023-04-20T06:19:29.214Z,101099.06
2023-04-20T06:21:55.627Z,101103.94
2023-04-20T06:24:22.008Z,101094.25
2023-04-20T06:26:55.084Z,101107.34
2023-04-20T06:29:21.490Z,101097.25
2023-04-20T06:31:47.966Z,101098.13
2023-04-20T06:34:14.946Z,101095.84
2023-04-20T06:36:44.169Z,101085.69
2023-04-20T06:39:13.368Z,101084.28
2023-04-20T06:41:39.888Z,101088.78
2023-04-20T06:44:06.335Z,101088.59
2023-04-20T06:46:32.748Z,101090.59
2023-04-20T06:48:59.284Z,101095.97
2023-04-20T06:51:26.965Z,101090.44
2023-04-20T06:53:54.379Z,101088.31
2023-04-20T06:56:21.483Z,101086.28
2023-04-20T06:58:47.916Z,101085.31
2023-04-20T07:01:14.382Z,101081.03
2023-04-20T07:03:41.050Z,101079.06
2023-04-20T07:06:07.628Z,101087.16
2023-04-20T07:08:34.046Z,101083.75
2023-04-20T07:11:00.878Z,101079.34
2023-04-20T07:13:30.981Z,101076.84
2023-04-20T07:15:59.809Z,101080.31
2023-04-20T07:18:26.206Z,101072.63
2023-04-20T07:20:52.798Z,101076.84
2023-04-20T07:23:20.108Z,101077.91
2023-04-20T07:25:46.588Z,101067.69
2023-04-20T07:28:12.963Z,101074.44
2023-04-20T07:30:39.411Z,101066.72
2023-04-20T07:33:05.921Z,101072.06
2023-04-20T07:35:32.368Z,101076.63
2023-04-20T07:37:58.749Z,101066.78
2023-04-20T07:40:25.369Z,101067.19
2023-04-20T07:42:52.053Z,101065.50
2023-04-20T07:45:19.132Z,101060.69
2023-04-20T07:47:47.278Z,101068.75
2023-04-20T07:50:13.762Z,101065.44
2023-04-20T07:52:40.183Z,101066.78
2023-04-20T07:55:08.089Z,101066.31
2023-04-20T07:57:35.149Z,101059.50
2023-04-20T08:00:01.648Z,101057.34
2023-04-20T08:02:28.269Z,101054.44
2023-04-20T08:04:55.085Z,101059.22
2023-04-20T08:07:21.642Z,101053.72
2023-04-20T08:09:48.030Z,101057.19
2023-04-20T08:12:14.397Z,101051.78
2023-04-20T08:14:41.297Z,101054.47
2023-04-20T08:17:08.160Z,101039.56
2023-04-20T08:19:34.549Z,101047.22
2023-04-20T08:22:01.477Z,101037.38
2023-04-20T08:24:29.212Z,101041.19
2023-04-20T08:26:55.786Z,101039.81
2023-04-20T08:29:22.228Z,101039.66
2023-04-20T08:31:50.005Z,101044.19
2023-04-20T08:34:17.614Z,101048.63
2023-04-20T08:36:44.061Z,101051.13
2023-04-20T08:39:12.798Z,101055.28
2023-04-20T08:41:39.182Z,101045.94
2023-04-20T08:44:07.163Z,101054.97
2023-04-20T08:46:34.508Z,101050.16
2023-04-20T08:49:04.228Z,101061.50
2023-04-20T08:51:33.496Z,101050.97
2023-04-20T08:54:05.739Z,101058.66
2023-04-20T08:56:36.981Z,101049.56
2023-04-20T08:59:05.219Z,101056.47
2023-04-20T09:01:35.737Z,101053.06
2023-04-20T09:04:03.270Z,101055.97
2023-04-20T09:06:29.908Z,101062.22
2023-04-20T09:08:56.630Z,101063.69
2023-04-20T09:11:32.254Z,101052.38
2023-04-20T09:14:10.154Z,101053.63
2023-04-20T09:16:40.027Z,101057.16
2023-04-20T09:19:09.226Z,101065.06
2023-04-20T09:21:36.342Z,101065.03
2023-04-20T09:24:09.242Z,101060.25
2023-04-20T09:26:36.372Z,101060.75
2023-04-20T09:29:03.709Z,101058.22
2023-04-20T09:31:30.220Z,101053.09
2023-04-20T09:34:03.565Z,101050.19
2023-04-20T09:36:46.669Z,101044.19
2023-04-20T09:39:17.915Z,101050.72
2023-04-20T09:41:44.571Z,101038.34
2023-04-20T09:44:12.278Z,101038.03
2023-04-20T09:46:40.452Z,101034.28
2023-04-20T09:49:10.827Z,101034.75
2023-04-20T09:51:38.942Z,101037.72
2023-04-20T09:54:06.373Z,101026.69
2023-04-20T09:56:34.563Z,101041.97
2023-04-20T09:59:01.959Z,101039.91
2023-04-20T10:01:34.462Z,101032.03
2023-04-20T10:04:02.677Z,101033.84
2023-04-20T10:06:34.351Z,101036.16
2023-04-20T10:09:02.417Z,101037.28
2023-04-20T10:11:48.929Z,101030.31
2023-04-20T10:14:20.451Z,101030.81
2023-04-20T10:16:59.217Z,101022.25
2023-04-20T10:19:36.539Z,101017.00
2023-04-20T10:22:03.017Z,101026.47
2023-04-20T10:24:30.338Z,101022.00
2023-04-20T10:26:56.978Z,101025.22
2023-04-20T10:29:27.148Z,101023.97
2023-04-20T10:31:54.686Z,101018.47
2023-04-20T10:34:34.637Z,101015.22
2023-04-20T10:37:11.352Z,101014.69
2023-04-20T10:39:47.404Z,101014.28
2023-04-20T10:42:15.468Z,101019.63
2023-04-20T10:44:51.222Z,101020.00
2023-04-20T10:47:18.478Z,101012.31
2023-04-20T10:49:45.118Z,101018.56
2023-04-20T10:52:11.579Z,101013.75
2023-04-20T10:54:39.146Z,101024.94
2023-04-20T10:57:06.615Z,101017.59
2023-04-20T10:59:37.201Z,101015.81
2023-04-20T11:02:07.628Z,101011.69
2023-04-20T11:04:35.372Z,101005.63
2023-04-20T11:07:10.146Z,101012.31
2023-04-20T11:09:38.337Z,100998.81
2023-04-20T11:12:11.768Z,100998.94
2023-04-20T11:14:49.909Z,100985.00
2023-04-20T11:17:16.426Z,100983.66
2023-04-20T11:19:42.961Z,100995.22
2023-04-20T11:22:09.353Z,100986.91
2023-04-20T11:24:37.202Z,100993.94
2023-04-20T11:27:05.054Z,100996.84
2023-04-20T11:29:36.715Z,100997.13
2023-04-20T11:32:06.221Z,100989.09
2023-04-20T11:34:37.498Z,100981.66
2023-04-20T11:37:09.580Z,100981.66
2023-04-20T11:39:36.375Z,100975.75
2023-04-20T11:42:03.336Z,100964.97
2023-04-20T11:44:29.912Z,100962.91
2023-04-20T11:46:59.745Z,100963.81
2023-04-20T11:49:28.594Z,100960.97
2023-04-20T11:51:55.153Z,100956.56
2023-04-20T11:54:25.162Z,100971.81
2023-04-20T11:56:51.610Z,100970.97
2023-04-20T11:59:20.119Z,100975.47
2023-04-20T12:01:47.656Z,100970.97
2023-04-20T12:04:15.025Z,100982.59
2023-04-20T12:06:42.377Z,100982.75
2023-04-20T12:09:08.850Z,100983.53
2023-04-20T12:11:35.214Z,100984.13
2023-04-20T12:14:01.702Z,100986.81
2023-04-20T12:16:28.181Z,100983.06
2023-04-20T12:18:54.722Z,100980.44
2023-04-20T12:21:21.255Z,100979.78
2023-04-20T12:23:49.526Z,100988.06
2023-04-20T12:26:16.613Z,100985.06
2023-04-20T12:28:45.052Z,100992.31
2023-04-20T12:31:11.530Z,100982.53
2023-04-20T12:33:38.089Z,100973.81
2023-04-20T12:36:05.147Z,100981.88
2023-04-20T12:38:31.526Z,100978.59
2023-04-20T12:40:57.979Z,100987.28
2023-04-20T12:43:24.379Z,100979.44
2023-04-20T12:45:50.802Z,100983.13
2023-04-20T12:48:17.259Z,100981.75
2023-04-20T12:50:43.677Z,100982.13
2023-04-20T12:53:10.121Z,100995.47
2023-04-20T12:55:36.500Z,100985.09
2023-04-20T12:58:02.889Z,100960.97
2023-04-20T13:00:29.370Z,100959.75
2023-04-20T13:02:55.796Z,100967.47
2023-04-20T13:05:22.270Z,100966.44
2023-04-20T13:07:48.720Z,100980.44
2023-04-20T13:10:15.935Z,100971.81
2023-04-20T13:12:42.364Z,100977.66
2023-04-20T13:15:09.347Z,100966.66
2023-04-20T13:17:36.094Z,100974.53
2023-04-20T13:20:02.700Z,100972.69
2023-04-20T13:22:29.135Z,100960.97
2023-04-20T13:24:55.575Z,100950.69
2023-04-20T13:27:22.013Z,100940.03
2023-04-20T13:29:48.431Z,100922.47
2023-04-20T13:32:14.934Z,100909.34
2023-04-20T13:34:41.364Z,100930.72
2023-04-20T13:37:07.797Z,100922.13
2023-04-20T13:39:34.629Z,100922.13
2023-04-20T13:42:01.646Z,100933.78
2023-04-20T13:44:28.104Z,100929.44
2023-04-20T13:46:54.492Z,100922.06
2023-04-20T13:49:23.507Z,100919.00
2023-04-20T13:51:50.198Z,100921.66
2023-04-20T13:54:16.989Z,100908.91
2023-04-20T13:56:43.589Z,100903.25
2023-04-20T13:59:10.118Z,100923.97
2023-04-20T14:01:36.787Z,100913.59
2023-04-20T14:04:03.658Z,100910.38
2023-04-20T14:06:31.039Z,100913.88
2023-04-20T14:08:57.441Z,100897.44
2023-04-20T14:11:23.850Z,100886.09
2023-04-20T14:13:50.295Z,100879.91
2023-04-20T14:16:16.807Z,100885.91
2023-04-20T14:18:43.342Z,100882.69
2023-04-20T14:21:09.739Z,100879.22
2023-04-20T14:23:36.231Z,100888.63
2023-04-20T14:26:03.853Z,100902.94
2023-04-20T14:28:32.868Z,100890.47
2023-04-20T14:31:00.785Z,100875.44
2023-04-20T14:33:27.801Z,100879.81
2023-04-20T14:35:54.234Z,100892.84
2023-04-20T14:38:20.604Z,100889.19
2023-04-20T14:40:48.265Z,100887.09
2023-04-20T14:43:14.648Z,100898.72
2023-04-20T14:45:41.665Z,100890.00
2023-04-20T14:48:08.079Z,100876.31
2023-04-20T14:50:34.694Z,100885.38
2023-04-20T14:53:01.137Z,100886.38
2023-04-20T14:55:28.635Z,100884.66
2023-04-20T14:57:56.828Z,100887.50
2023-04-20T15:00:24.983Z,100871.03
2023-04-20T15:02:53.452Z,100868.84
2023-04-20T15:05:20.187Z,100858.97
2023-04-20T15:07:50.481Z,100865.72
2023-04-20T15:10:18.737Z,100862.75
2023-04-20T15:12:45.845Z,100867.81
2023-04-20T15:15:12.211Z,100868.50
2023-04-20T15:17:38.722Z,100867.44
2023-04-20T15:20:06.419Z,100869.56
2023-04-20T15:22:32.845Z,100870.97
2023-04-20T15:24:59.205Z,100865.09
2023-04-20T15:27:25.570Z,100861.28
2023-04-20T15:29:51.971Z,100868.03
2023-04-20T15:32:18.434Z,100857.75
2023-04-20T15:34:44.911Z,100855.34
2023-04-20T15:37:11.300Z,100853.34
2023-04-20T15:39:37.733Z,100849.03
2023-04-20T15:42:04.206Z,100855.25
2023-04-20T15:44:30.722Z,100857.44
2023-04-20T15:46:58.243Z,100860.91
2023-04-20T15:49:24.696Z,100851.75
2023-04-20T15:51:51.113Z,100860.31
2023-04-20T15:54:19.424Z,100852.38
2023-04-20T15:56:46.157Z,100846.09
2023-04-20T15:59:12.542Z,100846.78
2023-04-20T16:01:38.962Z,100848.56
2023-04-20T16:04:05.941Z,100850.41
2023-04-20T16:06:32.448Z,100857.31
2023-04-20T16:08:58.842Z,100853.94
2023-04-20T16:11:25.233Z,100856.91
2023-04-20T16:13:51.626Z,100855.72
2023-04-20T16:16:18.062Z,100848.53
2023-04-20T16:18:44.519Z,100846.16
2023-04-20T16:21:10.873Z,100856.53
2023-04-20T16:23:37.299Z,100859.88
2023-04-20T16:26:03.800Z,100858.69
2023-04-20T16:28:30.512Z,100867.16
2023-04-20T16:30:57.553Z,100866.09
2023-04-20T16:33:24.388Z,100859.28
2023-04-20T16:35:51.754Z,100874.31
2023-04-20T16:38:19.258Z,100888.56
2023-04-20T16:40:45.670Z,100892.28
2023-04-20T16:43:12.030Z,100902.56
2023-04-20T16:45:38.984Z,100912.13
2023-04-20T16:48:05.559Z,100918.22
2023-04-20T16:50:32.253Z,100917.56
2023-04-20T16:52:58.938Z,100923.66
2023-04-20T16:55:26.037Z,100925.88
2023-04-20T16:57:59.510Z,100928.81
2023-04-20T17:00:29.987Z,100920.56
2023-04-20T17:02:56.898Z,100914.59
2023-04-20T17:05:24.432Z,100917.09
2023-04-20T17:07:50.926Z,100937.63
2023-04-20T17:10:17.504Z,100925.53
2023-04-20T17:12:43.924Z,100932.91
2023-04-20T17:15:10.674Z,100922.97
2023-04-20T17:17:37.182Z,100930.09
2023-04-20T17:20:07.172Z,100928.94
2023-04-20T17:22:35.164Z,100933.78
2023-04-20T17:25:01.986Z,100936.81
2023-04-20T17:27:28.367Z,100932.34
2023-04-20T17:29:55.972Z,100926.72
2023-04-20T17:32:22.635Z,100923.44
2023-04-20T17:34:51.281Z,100923.59
2023-04-20T17:37:18.060Z,100921.31
2023-04-20T17:39:44.471Z,100932.69
2023-04-20T17:42:12.291Z,100933.47
2023-04-20T17:44:39.184Z,100937.13
2023-04-20T17:47:06.494Z,100932.38
2023-04-20T17:49:34.717Z,100940.94
2023-04-20T17:52:01.226Z,100931.75
2023-04-20T17:54:27.605Z,100930.91
2023-04-20T17:56:54.056Z,100936.25
2023-04-20T17:59:20.676Z,100937.97
2023-04-20T18:01:49.174Z,100931.75
2023-04-20T18:04:16.264Z,100937.72
2023-04-20T18:06:42.917Z,100931.91
2023-04-20T18:09:09.872Z,100930.88
2023-04-20T18:11:36.302Z,100922.59
2023-04-20T18:14:02.766Z,100929.53
2023-04-20T18:16:29.328Z,100927.06
2023-04-20T18:18:55.788Z,100928.69
2023-04-20T18:21:22.223Z,100932.06
2023-04-20T18:23:48.646Z,100924.84
2023-04-20T18:26:17.669Z,100928.59
2023-04-20T18:28:44.882Z,100924.91
2023-04-20T18:31:11.723Z,100932.38
2023-04-20T18:33:38.165Z,100937.53
2023-04-20T18:36:05.471Z,100934.81
2023-04-20T18:38:32.454Z,100927.69
2023-04-20T18:40:59.740Z,100924.50
2023-04-20T18:43:26.502Z,100913.25
2023-04-20T18:45:52.853Z,100925.19
2023-04-20T18:48:19.184Z,100917.56
2023-04-20T18:50:47.436Z,100917.63
2023-04-20T18:53:14.537Z,100918.16
2023-04-20T18:55:41.290Z,100925.13
2023-04-20T18:58:07.734Z,100921.28
2023-04-20T19:00:34.180Z,100915.22
2023-04-20T19:03:00.754Z,100922.44
2023-04-20T19:05:27.258Z,100924.66
2023-04-20T19:07:53.631Z,100921.34
2023-04-20T19:10:20.064Z,100918.38
2023-04-20T19:12:46.428Z,100911.00
2023-04-20T19:15:12.824Z,100919.25
2023-04-20T19:17:39.350Z,100922.66
2023-04-20T19:20:06.532Z,100913.31
2023-04-20T19:22:33.077Z,100909.63
2023-04-20T19:24:59.463Z,100915.97
2023-04-20T19:27:26.461Z,100908.66
2023-04-20T19:29:52.879Z,100911.97
2023-04-20T19:32:19.403Z,100914.34
2023-04-20T19:34:45.880Z,100910.47
2023-04-20T19:37:12.299Z,100905.59
2023-04-20T19:39:38.756Z,100914.09
2023-04-20T19:42:05.132Z,100909.69
2023-04-20T19:44:31.564Z,100920.69
2023-04-20T19:46:57.963Z,100924.25
2023-04-20T19:49:24.387Z,100912.72
2023-04-20T19:51:50.751Z,100912.50
2023-04-20T19:54:17.485Z,100905.47
2023-04-20T19:56:43.883Z,100911.34
2023-04-20T19:59:10.317Z,100906.66
2023-04-20T20:01:36.734Z,100899.47
2023-04-20T20:04:03.269Z,100902.25
2023-04-20T20:06:29.838Z,100899.00
2023-04-20T20:08:56.714Z,100897.81
2023-04-20T20:11:25.133Z,100890.84
2023-04-20T20:13:51.982Z,100893.19
2023-04-20T20:16:19.098Z,100896.91
2023-04-20T20:18:47.953Z,100901.53
2023-04-20T20:21:14.331Z,100902.91
2023-04-20T20:23:40.735Z,100895.19
2023-04-20T20:26:07.161Z,100889.88
2023-04-20T20:28:33.609Z,100894.09
2023-04-20T20:31:00.366Z,100888.84
2023-04-20T20:33:26.873Z,100883.50
2023-04-20T20:35:53.321Z,100886.75
2023-04-20T20:38:20.932Z,100881.84
2023-04-20T20:40:50.448Z,100882.72
2023-04-20T20:43:18.245Z,100872.66
2023-04-20T20:45:44.770Z,100871.34
2023-04-20T20:48:11.171Z,100864.25
2023-04-20T20:50:37.563Z,100857.78
2023-04-20T20:53:03.957Z,100864.22
2023-04-20T20:55:30.636Z,100861.59
2023-04-20T20:57:57.005Z,100860.41
2023-04-20T21:00:23.702Z,100855.91
2023-04-20T21:02:50.658Z,100851.66
2023-04-20T21:05:17.115Z,100866.88
2023-04-20T21:07:43.487Z,100861.69
2023-04-20T21:10:11.736Z,100855.84
2023-04-20T21:12:38.142Z,100859.88
2023-04-20T21:15:04.845Z,100859.19
2023-04-20T21:17:31.319Z,100865.50
2023-04-20T21:19:57.711Z,100858.97
2023-04-20T21:22:24.132Z,100846.75
2023-04-20T21:24:50.569Z,100834.91
2023-04-20T21:27:17.021Z,100844.59
2023-04-20T21:29:43.386Z,100837.06
2023-04-20T21:32:09.804Z,100843.03
2023-04-20T21:34:36.294Z,100847.13
2023-04-20T21:37:05.722Z,100844.47
2023-04-20T21:39:32.347Z,100842.94
2023-04-20T21:41:59.615Z,100836.72
2023-04-20T21:44:26.239Z,100834.66
2023-04-20T21:46:52.667Z,100826.66
2023-04-20T21:49:19.425Z,100823.00
2023-04-20T21:51:45.932Z,100814.81
2023-04-20T21:54:12.403Z,100813.66
2023-04-20T21:56:38.796Z,100823.94
2023-04-20T21:59:05.226Z,100815.59
2023-04-20T22:01:31.673Z,100810.22
2023-04-20T22:03:58.253Z,100812.50
2023-04-20T22:06:24.800Z,100814.88
2023-04-20T22:08:51.244Z,100819.81
2023-04-20T22:11:17.696Z,100820.97
2023-04-20T22:13:45.187Z,100820.31
2023-04-20T22:16:11.637Z,100821.88
2023-04-20T22:18:38.024Z,100816.66
2023-04-20T22:21:04.415Z,100818.06
2023-04-20T22:23:30.823Z,100819.06
2023-04-20T22:25:57.187Z,100808.91
2023-04-20T22:28:23.587Z,100813.59
2023-04-20T22:30:50.031Z,100807.09
2023-04-20T22:33:16.569Z,100813.66
2023-04-20T22:35:43.002Z,100803.78
2023-04-20T22:38:09.421Z,100798.41
2023-04-20T22:40:35.796Z,100797.25
2023-04-20T22:43:02.181Z,100797.19
2023-04-20T22:45:28.720Z,100799.59
2023-04-20T22:47:55.175Z,100799.81
2023-04-20T22:50:21.596Z,100793.00
2023-04-20T22:52:49.514Z,100794.56
2023-04-20T22:55:16.060Z,100780.78
2023-04-20T22:57:42.498Z,100792.00
2023-04-20T23:00:13.825Z,100776.22
2023-04-20T23:02:40.856Z,100782.31
2023-04-20T23:05:07.615Z,100778.63
2023-04-20T23:07:34.050Z,100770.16
2023-04-20T23:10:01.357Z,100774.66
2023-04-20T23:12:29.352Z,100769.25
2023-04-20T23:15:00.334Z,100766.97
2023-04-20T23:17:27.963Z,100756.28
2023-04-20T23:19:55.124Z,100754.81
2023-04-20T23:22:21.500Z,100756.41
2023-04-20T23:24:47.876Z,100747.59
2023-04-20T23:27:14.241Z,100747.31
2023-04-20T23:29:41.388Z,100752.13
2023-04-20T23:32:07.811Z,100747.25
2023-04-20T23:34:34.230Z,100733.59
2023-04-20T23:37:00.641Z,100730.47
2023-04-20T23:39:27.035Z,100719.44
2023-04-20T23:41:53.509Z,100726.81
2023-04-20T23:44:19.928Z,100726.56
2023-04-20T23:46:46.642Z,100727.81
2023-04-20T23:49:13.064Z,100719.69
2023-04-20T23:51:39.485Z,100724.22
2023-04-20T23:54:05.875Z,100734.47
2023-04-20T23:56:32.247Z,100731.06
2023-04-20T23:58:59.128Z,100730.91
